Dayton, New Jersey
Current Conditions -  °F | °C
As of 4:53 AM on Sunday 23 Nov 2014 (Local Time) from KTTN Reporting Station
Overcast Overcast  
Wind Chill: 35°   Ceiling: 11000
Heat Index: 39°   Visibility: 10mi
Dew Point: 24°   Wind: 6mph
Humidity: 55%   Direction: 230°SW
Pressure: 30.19"   Gusts: NA
Location:  40.37°N, 74.51°W
Report Text: KTTN 230953Z AUTO 23005KT 10SM FEW090 OVC110 04/M04 A3019 RMK AO2 SLP218 T00391044
Loading
Personal Weather Stations






























Interactive Weather Map New forecast layout! Learn more

10-Day Weather Forecast

Advertisements
Track Severe Weather on mobile